sensor_id;sensor_type;location;lat;lon;timestamp;P1;durP1;ratioP1;P2;durP2;ratioP2
9040;SDS011;4555;49.918;7.012;2022-09-12T00:02:02;0.53;;;0.53;;
9040;SDS011;4555;49.918;7.012;2022-09-12T00:04:28;0.20;;;0.20;;
9040;SDS011;4555;49.918;7.012;2022-09-12T00:06:54;0.40;;;0.40;;
9040;SDS011;4555;49.918;7.012;2022-09-12T00:09:20;0.37;;;0.37;;
9040;SDS011;4555;49.918;7.012;2022-09-12T00:11:46;0.50;;;0.50;;
9040;SDS011;4555;49.918;7.012;2022-09-12T00:14:13;0.40;;;0.40;;
9040;SDS011;4555;49.918;7.012;2022-09-12T00:16:40;0.50;;;0.50;;
9040;SDS011;4555;49.918;7.012;2022-09-12T00:19:07;0.57;;;0.57;;
9040;SDS011;4555;49.918;7.012;2022-09-12T00:21:35;0.70;;;0.70;;
9040;SDS011;4555;49.918;7.012;2022-09-12T00:24:02;0.57;;;0.57;;
9040;SDS011;4555;49.918;7.012;2022-09-12T00:26:28;0.40;;;0.40;;
9040;SDS011;4555;49.918;7.012;2022-09-12T00:28:54;0.30;;;0.30;;
9040;SDS011;4555;49.918;7.012;2022-09-12T00:31:21;1.10;;;0.63;;
9040;SDS011;4555;49.918;7.012;2022-09-12T00:33:49;0.53;;;0.53;;
9040;SDS011;4555;49.918;7.012;2022-09-12T00:36:19;0.40;;;0.40;;
9040;SDS011;4555;49.918;7.012;2022-09-12T00:38:46;0.37;;;0.37;;
9040;SDS011;4555;49.918;7.012;2022-09-12T00:41:18;0.43;;;0.43;;
9040;SDS011;4555;49.918;7.012;2022-09-12T00:43:47;0.67;;;0.60;;
9040;SDS011;4555;49.918;7.012;2022-09-12T00:51:42;0.97;;;0.60;;
9040;SDS011;4555;49.918;7.012;2022-09-12T00:54:16;0.40;;;0.40;;
9040;SDS011;4555;49.918;7.012;2022-09-12T00:56:46;0.40;;;0.40;;
9040;SDS011;4555;49.918;7.012;2022-09-12T00:59:15;0.90;;;0.90;;
9040;SDS011;4555;49.918;7.012;2022-09-12T01:01:44;0.77;;;0.77;;
9040;SDS011;4555;49.918;7.012;2022-09-12T01:04:14;0.60;;;0.60;;
9040;SDS011;4555;49.918;7.012;2022-09-12T01:06:42;0.70;;;0.70;;
9040;SDS011;4555;49.918;7.012;2022-09-12T01:09:12;0.33;;;0.33;;
9040;SDS011;4555;49.918;7.012;2022-09-12T01:11:41;0.43;;;0.43;;
9040;SDS011;4555;49.918;7.012;2022-09-12T01:14:11;0.40;;;0.40;;
9040;SDS011;4555;49.918;7.012;2022-09-12T01:16:37;0.40;;;0.40;;
9040;SDS011;4555;49.918;7.012;2022-09-12T01:38:46;0.43;;;0.43;;
9040;SDS011;4555;49.918;7.012;2022-09-12T01:44:27;0.50;;;0.50;;
9040;SDS011;4555;49.918;7.012;2022-09-12T01:49:54;0.27;;;0.27;;
9040;SDS011;4555;49.918;7.012;2022-09-12T01:52:43;0.40;;;0.40;;
9040;SDS011;4555;49.918;7.012;2022-09-12T01:55:24;0.40;;;0.40;;
9040;SDS011;4555;49.918;7.012;2022-09-12T01:57:59;0.57;;;0.57;;
9040;SDS011;4555;49.918;7.012;2022-09-12T02:00:31;0.40;;;0.40;;
9040;SDS011;4555;49.918;7.012;2022-09-12T02:03:10;0.30;;;0.30;;
9040;SDS011;4555;49.918;7.012;2022-09-12T02:05:41;0.30;;;0.30;;
9040;SDS011;4555;49.918;7.012;2022-09-12T02:08:13;0.47;;;0.47;;
9040;SDS011;4555;49.918;7.012;2022-09-12T02:10:51;0.23;;;0.23;;
9040;SDS011;4555;49.918;7.012;2022-09-12T02:13:37;0.17;;;0.17;;
9040;SDS011;4555;49.918;7.012;2022-09-12T02:16:18;0.30;;;0.30;;
9040;SDS011;4555;49.918;7.012;2022-09-12T02:19:06;0.27;;;0.27;;
9040;SDS011;4555;49.918;7.012;2022-09-12T02:21:42;0.27;;;0.27;;
9040;SDS011;4555;49.918;7.012;2022-09-12T02:24:13;0.00;;;0.00;;
9040;SDS011;4555;49.918;7.012;2022-09-12T02:26:49;0.60;;;0.60;;
9040;SDS011;4555;49.918;7.012;2022-09-12T02:29:18;0.10;;;0.10;;
9040;SDS011;4555;49.918;7.012;2022-09-12T02:31:45;0.17;;;0.17;;
9040;SDS011;4555;49.918;7.012;2022-09-12T02:36:45;0.03;;;0.03;;
9040;SDS011;4555;49.918;7.012;2022-09-12T02:39:29;0.40;;;0.40;;
9040;SDS011;4555;49.918;7.012;2022-09-12T02:41:56;0.23;;;0.23;;
9040;SDS011;4555;49.918;7.012;2022-09-12T02:44:25;0.50;;;0.50;;
9040;SDS011;4555;49.918;7.012;2022-09-12T02:46:53;0.60;;;0.60;;
9040;SDS011;4555;49.918;7.012;2022-09-12T02:49:22;0.43;;;0.43;;
9040;SDS011;4555;49.918;7.012;2022-09-12T02:51:48;0.37;;;0.37;;
9040;SDS011;4555;49.918;7.012;2022-09-12T02:54:15;0.67;;;0.67;;
9040;SDS011;4555;49.918;7.012;2022-09-12T02:56:44;0.20;;;0.20;;
9040;SDS011;4555;49.918;7.012;2022-09-12T02:59:19;0.73;;;0.73;;
9040;SDS011;4555;49.918;7.012;2022-09-12T03:26:14;0.37;;;0.37;;
9040;SDS011;4555;49.918;7.012;2022-09-12T03:28:44;2.20;;;0.70;;
9040;SDS011;4555;49.918;7.012;2022-09-12T03:31:15;0.90;;;0.90;;
9040;SDS011;4555;49.918;7.012;2022-09-12T03:33:41;0.73;;;0.70;;
9040;SDS011;4555;49.918;7.012;2022-09-12T03:36:23;0.77;;;0.77;;
9040;SDS011;4555;49.918;7.012;2022-09-12T03:38:50;0.90;;;0.90;;
9040;SDS011;4555;49.918;7.012;2022-09-12T03:41:16;0.40;;;0.30;;
9040;SDS011;4555;49.918;7.012;2022-09-12T03:43:43;0.87;;;0.83;;
9040;SDS011;4555;49.918;7.012;2022-09-12T03:46:09;3.27;;;0.90;;
9040;SDS011;4555;49.918;7.012;2022-09-12T03:48:35;0.53;;;0.53;;
9040;SDS011;4555;49.918;7.012;2022-09-12T03:51:02;1.20;;;0.67;;
9040;SDS011;4555;49.918;7.012;2022-09-12T03:53:29;0.63;;;0.63;;
9040;SDS011;4555;49.918;7.012;2022-09-12T03:55:56;1.07;;;1.00;;
9040;SDS011;4555;49.918;7.012;2022-09-12T03:58:23;0.30;;;0.30;;
9040;SDS011;4555;49.918;7.012;2022-09-12T04:00:49;1.97;;;0.97;;
9040;SDS011;4555;49.918;7.012;2022-09-12T04:03:15;0.50;;;0.50;;
9040;SDS011;4555;49.918;7.012;2022-09-12T04:05:41;0.83;;;0.73;;
9040;SDS011;4555;49.918;7.012;2022-09-12T04:08:07;0.93;;;0.93;;
9040;SDS011;4555;49.918;7.012;2022-09-12T04:10:32;0.77;;;0.77;;
9040;SDS011;4555;49.918;7.012;2022-09-12T04:12:58;0.70;;;0.70;;
9040;SDS011;4555;49.918;7.012;2022-09-12T04:15:24;0.30;;;0.30;;
9040;SDS011;4555;49.918;7.012;2022-09-12T04:17:50;0.20;;;0.20;;
9040;SDS011;4555;49.918;7.012;2022-09-12T04:20:16;1.40;;;0.60;;
9040;SDS011;4555;49.918;7.012;2022-09-12T04:22:43;1.30;;;1.20;;
9040;SDS011;4555;49.918;7.012;2022-09-12T04:25:09;0.90;;;0.50;;
9040;SDS011;4555;49.918;7.012;2022-09-12T04:27:35;0.67;;;0.50;;
9040;SDS011;4555;49.918;7.012;2022-09-12T04:30:02;0.33;;;0.33;;
9040;SDS011;4555;49.918;7.012;2022-09-12T04:32:29;0.43;;;0.43;;
9040;SDS011;4555;49.918;7.012;2022-09-12T04:34:55;1.17;;;1.07;;
9040;SDS011;4555;49.918;7.012;2022-09-12T04:37:21;0.47;;;0.40;;
9040;SDS011;4555;49.918;7.012;2022-09-12T04:39:48;0.53;;;0.50;;
9040;SDS011;4555;49.918;7.012;2022-09-12T04:42:14;0.83;;;0.83;;
9040;SDS011;4555;49.918;7.012;2022-09-12T04:44:40;0.40;;;0.40;;
9040;SDS011;4555;49.918;7.012;2022-09-12T04:47:06;0.50;;;0.50;;
9040;SDS011;4555;49.918;7.012;2022-09-12T04:49:32;0.73;;;0.73;;
9040;SDS011;4555;49.918;7.012;2022-09-12T04:51:58;0.50;;;0.50;;
9040;SDS011;4555;49.918;7.012;2022-09-12T04:54:24;0.90;;;0.90;;
9040;SDS011;4555;49.918;7.012;2022-09-12T04:56:50;0.83;;;0.83;;
9040;SDS011;4555;49.918;7.012;2022-09-12T04:59:19;1.27;;;1.17;;
9040;SDS011;4555;49.918;7.012;2022-09-12T05:01:45;0.70;;;0.70;;
9040;SDS011;4555;49.918;7.012;2022-09-12T05:04:11;0.80;;;0.80;;
9040;SDS011;4555;49.918;7.012;2022-09-12T05:06:37;0.33;;;0.33;;
9040;SDS011;4555;49.918;7.012;2022-09-12T05:09:05;0.40;;;0.30;;
9040;SDS011;4555;49.918;7.012;2022-09-12T05:11:32;1.00;;;0.70;;
9040;SDS011;4555;49.918;7.012;2022-09-12T05:14:00;0.70;;;0.70;;
9040;SDS011;4555;49.918;7.012;2022-09-12T05:16:26;0.50;;;0.50;;
9040;SDS011;4555;49.918;7.012;2022-09-12T05:18:53;0.60;;;0.57;;
9040;SDS011;4555;49.918;7.012;2022-09-12T05:21:21;0.23;;;0.23;;
9040;SDS011;4555;49.918;7.012;2022-09-12T05:23:49;0.57;;;0.57;;
9040;SDS011;4555;49.918;7.012;2022-09-12T05:26:19;0.30;;;0.30;;
9040;SDS011;4555;49.918;7.012;2022-09-12T05:28:46;0.97;;;0.80;;
9040;SDS011;4555;49.918;7.012;2022-09-12T05:31:16;0.63;;;0.63;;
9040;SDS011;4555;49.918;7.012;2022-09-12T05:33:53;0.73;;;0.73;;
9040;SDS011;4555;49.918;7.012;2022-09-12T05:36:20;0.50;;;0.50;;
9040;SDS011;4555;49.918;7.012;2022-09-12T05:38:48;0.83;;;0.83;;
9040;SDS011;4555;49.918;7.012;2022-09-12T05:41:15;1.13;;;0.77;;
9040;SDS011;4555;49.918;7.012;2022-09-12T05:43:46;0.53;;;0.53;;
9040;SDS011;4555;49.918;7.012;2022-09-12T05:46:16;0.37;;;0.37;;
9040;SDS011;4555;49.918;7.012;2022-09-12T05:48:43;0.60;;;0.60;;
9040;SDS011;4555;49.918;7.012;2022-09-12T05:51:11;0.83;;;0.83;;
9040;SDS011;4555;49.918;7.012;2022-09-12T05:53:39;0.60;;;0.60;;
9040;SDS011;4555;49.918;7.012;2022-09-12T05:58:32;0.50;;;0.50;;
9040;SDS011;4555;49.918;7.012;2022-09-12T06:01:17;1.10;;;0.97;;
9040;SDS011;4555;49.918;7.012;2022-09-12T06:03:44;1.00;;;1.00;;
9040;SDS011;4555;49.918;7.012;2022-09-12T06:06:12;0.90;;;0.90;;
9040;SDS011;4555;49.918;7.012;2022-09-12T06:08:40;0.67;;;0.67;;
9040;SDS011;4555;49.918;7.012;2022-09-12T06:11:09;1.63;;;0.77;;
9040;SDS011;4555;49.918;7.012;2022-09-12T06:13:36;0.40;;;0.40;;
9040;SDS011;4555;49.918;7.012;2022-09-12T06:16:07;0.70;;;0.70;;
9040;SDS011;4555;49.918;7.012;2022-09-12T06:18:35;0.57;;;0.50;;
9040;SDS011;4555;49.918;7.012;2022-09-12T06:21:02;0.90;;;0.90;;
9040;SDS011;4555;49.918;7.012;2022-09-12T06:23:29;0.70;;;0.70;;
9040;SDS011;4555;49.918;7.012;2022-09-12T06:25:55;0.67;;;0.57;;
9040;SDS011;4555;49.918;7.012;2022-09-12T06:28:21;0.87;;;0.87;;
9040;SDS011;4555;49.918;7.012;2022-09-12T06:30:47;0.73;;;0.73;;
9040;SDS011;4555;49.918;7.012;2022-09-12T06:33:13;0.43;;;0.43;;
9040;SDS011;4555;49.918;7.012;2022-09-12T06:35:39;1.27;;;1.17;;
9040;SDS011;4555;49.918;7.012;2022-09-12T06:38:05;0.47;;;0.47;;
9040;SDS011;4555;49.918;7.012;2022-09-12T06:40:31;0.63;;;0.63;;
9040;SDS011;4555;49.918;7.012;2022-09-12T06:42:57;0.30;;;0.30;;
9040;SDS011;4555;49.918;7.012;2022-09-12T06:45:31;1.40;;;1.00;;
9040;SDS011;4555;49.918;7.012;2022-09-12T06:47:57;0.57;;;0.57;;
9040;SDS011;4555;49.918;7.012;2022-09-12T06:50:23;0.90;;;0.90;;
9040;SDS011;4555;49.918;7.012;2022-09-12T06:52:49;1.00;;;1.00;;
9040;SDS011;4555;49.918;7.012;2022-09-12T06:55:15;0.77;;;0.77;;
9040;SDS011;4555;49.918;7.012;2022-09-12T06:57:42;3.20;;;1.10;;
9040;SDS011;4555;49.918;7.012;2022-09-12T07:00:08;1.10;;;1.10;;
9040;SDS011;4555;49.918;7.012;2022-09-12T07:02:34;0.90;;;0.90;;
9040;SDS011;4555;49.918;7.012;2022-09-12T07:05:00;1.20;;;1.10;;
9040;SDS011;4555;49.918;7.012;2022-09-12T07:07:26;1.27;;;1.17;;
9040;SDS011;4555;49.918;7.012;2022-09-12T07:09:52;0.83;;;0.83;;
9040;SDS011;4555;49.918;7.012;2022-09-12T07:12:18;0.07;;;0.07;;
9040;SDS011;4555;49.918;7.012;2022-09-12T07:14:44;0.80;;;0.73;;
9040;SDS011;4555;49.918;7.012;2022-09-12T07:17:10;0.87;;;0.87;;
9040;SDS011;4555;49.918;7.012;2022-09-12T07:19:36;0.40;;;0.40;;
9040;SDS011;4555;49.918;7.012;2022-09-12T07:22:02;0.93;;;0.93;;
9040;SDS011;4555;49.918;7.012;2022-09-12T07:24:28;0.70;;;0.70;;
9040;SDS011;4555;49.918;7.012;2022-09-12T07:26:54;0.97;;;0.90;;
9040;SDS011;4555;49.918;7.012;2022-09-12T07:29:20;0.70;;;0.70;;
9040;SDS011;4555;49.918;7.012;2022-09-12T07:31:46;0.80;;;0.80;;
9040;SDS011;4555;49.918;7.012;2022-09-12T07:34:12;0.63;;;0.63;;
9040;SDS011;4555;49.918;7.012;2022-09-12T07:36:38;1.03;;;0.97;;
9040;SDS011;4555;49.918;7.012;2022-09-12T07:39:04;1.30;;;1.20;;
9040;SDS011;4555;49.918;7.012;2022-09-12T07:41:30;0.47;;;0.47;;
9040;SDS011;4555;49.918;7.012;2022-09-12T07:44:00;0.77;;;0.77;;
9040;SDS011;4555;49.918;7.012;2022-09-12T07:46:27;0.77;;;0.77;;
9040;SDS011;4555;49.918;7.012;2022-09-12T07:48:55;1.80;;;0.77;;
9040;SDS011;4555;49.918;7.012;2022-09-12T07:51:22;1.43;;;1.37;;
9040;SDS011;4555;49.918;7.012;2022-09-12T07:53:49;1.93;;;1.20;;
9040;SDS011;4555;49.918;7.012;2022-09-12T07:56:16;1.27;;;1.17;;
9040;SDS011;4555;49.918;7.012;2022-09-12T07:58:43;2.20;;;1.63;;
9040;SDS011;4555;49.918;7.012;2022-09-12T08:01:11;1.10;;;1.10;;
9040;SDS011;4555;49.918;7.012;2022-09-12T08:03:41;1.10;;;1.10;;
9040;SDS011;4555;49.918;7.012;2022-09-12T08:06:08;1.10;;;1.07;;
9040;SDS011;4555;49.918;7.012;2022-09-12T08:08:39;2.10;;;1.73;;
9040;SDS011;4555;49.918;7.012;2022-09-12T08:11:06;1.63;;;1.07;;
9040;SDS011;4555;49.918;7.012;2022-09-12T08:13:35;1.80;;;1.20;;
9040;SDS011;4555;49.918;7.012;2022-09-12T08:16:07;1.23;;;1.13;;
9040;SDS011;4555;49.918;7.012;2022-09-12T08:18:36;1.30;;;1.20;;
9040;SDS011;4555;49.918;7.012;2022-09-12T08:21:03;1.33;;;1.23;;
9040;SDS011;4555;49.918;7.012;2022-09-12T08:23:30;1.47;;;1.20;;
9040;SDS011;4555;49.918;7.012;2022-09-12T08:25:56;1.63;;;1.40;;
9040;SDS011;4555;49.918;7.012;2022-09-12T08:28:24;0.47;;;0.47;;
9040;SDS011;4555;49.918;7.012;2022-09-12T08:30:51;1.30;;;1.20;;
9040;SDS011;4555;49.918;7.012;2022-09-12T08:33:18;1.43;;;1.33;;
9040;SDS011;4555;49.918;7.012;2022-09-12T08:35:44;2.50;;;1.40;;
9040;SDS011;4555;49.918;7.012;2022-09-12T08:38:10;1.70;;;1.43;;
9040;SDS011;4555;49.918;7.012;2022-09-12T08:40:43;1.43;;;1.30;;
9040;SDS011;4555;49.918;7.012;2022-09-12T08:46:07;1.87;;;1.77;;
9040;SDS011;4555;49.918;7.012;2022-09-12T08:48:43;2.47;;;1.77;;
9040;SDS011;4555;49.918;7.012;2022-09-12T08:51:11;1.70;;;1.60;;
9040;SDS011;4555;49.918;7.012;2022-09-12T08:53:39;1.90;;;1.80;;
9040;SDS011;4555;49.918;7.012;2022-09-12T08:56:06;1.93;;;1.83;;
9040;SDS011;4555;49.918;7.012;2022-09-12T08:58:38;1.47;;;1.47;;
9040;SDS011;4555;49.918;7.012;2022-09-12T09:09:35;2.30;;;1.93;;
9040;SDS011;4555;49.918;7.012;2022-09-12T09:15:12;1.80;;;1.70;;
9040;SDS011;4555;49.918;7.012;2022-09-12T09:21:01;1.93;;;1.53;;
9040;SDS011;4555;49.918;7.012;2022-09-12T09:26:11;1.50;;;1.40;;
9040;SDS011;4555;49.918;7.012;2022-09-12T09:28:45;2.23;;;1.57;;
9040;SDS011;4555;49.918;7.012;2022-09-12T09:31:19;1.50;;;1.40;;
9040;SDS011;4555;49.918;7.012;2022-09-12T09:33:51;1.73;;;1.63;;
9040;SDS011;4555;49.918;7.012;2022-09-12T09:44:23;2.20;;;1.70;;
9040;SDS011;4555;49.918;7.012;2022-09-12T09:46:53;1.90;;;1.80;;
9040;SDS011;4555;49.918;7.012;2022-09-12T09:49:22;1.93;;;1.83;;
9040;SDS011;4555;49.918;7.012;2022-09-12T09:51:49;1.80;;;1.70;;
9040;SDS011;4555;49.918;7.012;2022-09-12T09:54:19;1.50;;;1.40;;
9040;SDS011;4555;49.918;7.012;2022-09-12T09:57:00;1.77;;;1.67;;
9040;SDS011;4555;49.918;7.012;2022-09-12T09:59:26;2.40;;;2.20;;
9040;SDS011;4555;49.918;7.012;2022-09-12T10:04:57;2.13;;;2.03;;
9040;SDS011;4555;49.918;7.012;2022-09-12T10:07:24;1.90;;;1.80;;
9040;SDS011;4555;49.918;7.012;2022-09-12T10:12:31;2.50;;;2.00;;
9040;SDS011;4555;49.918;7.012;2022-09-12T10:14:58;1.53;;;1.47;;
9040;SDS011;4555;49.918;7.012;2022-09-12T10:17:48;1.30;;;1.30;;
9040;SDS011;4555;49.918;7.012;2022-09-12T10:20:34;1.90;;;1.80;;
9040;SDS011;4555;49.918;7.012;2022-09-12T10:23:01;2.73;;;1.83;;
9040;SDS011;4555;49.918;7.012;2022-09-12T10:25:52;1.50;;;1.40;;
9040;SDS011;4555;49.918;7.012;2022-09-12T10:28:27;1.57;;;1.57;;
9040;SDS011;4555;49.918;7.012;2022-09-12T10:30:59;2.17;;;1.47;;
9040;SDS011;4555;49.918;7.012;2022-09-12T10:33:26;1.53;;;1.43;;
9040;SDS011;4555;49.918;7.012;2022-09-12T10:35:53;1.37;;;1.33;;
9040;SDS011;4555;49.918;7.012;2022-09-12T10:38:23;2.17;;;2.07;;
9040;SDS011;4555;49.918;7.012;2022-09-12T10:41:10;1.57;;;1.50;;
9040;SDS011;4555;49.918;7.012;2022-09-12T10:43:37;2.73;;;1.87;;
9040;SDS011;4555;49.918;7.012;2022-09-12T10:48:45;0.90;;;0.90;;
9040;SDS011;4555;49.918;7.012;2022-09-12T10:53:50;1.47;;;1.37;;
9040;SDS011;4555;49.918;7.012;2022-09-12T10:56:27;1.30;;;1.30;;
9040;SDS011;4555;49.918;7.012;2022-09-12T11:01:40;0.97;;;0.97;;
9040;SDS011;4555;49.918;7.012;2022-09-12T11:04:13;1.20;;;1.20;;
9040;SDS011;4555;49.918;7.012;2022-09-12T11:07:20;0.97;;;0.97;;
9040;SDS011;4555;49.918;7.012;2022-09-12T11:09:52;1.47;;;1.13;;
9040;SDS011;4555;49.918;7.012;2022-09-12T11:18:11;0.90;;;0.90;;
9040;SDS011;4555;49.918;7.012;2022-09-12T11:21:01;1.00;;;1.00;;
9040;SDS011;4555;49.918;7.012;2022-09-12T11:31:45;0.90;;;0.90;;
9040;SDS011;4555;49.918;7.012;2022-09-12T11:39:47;0.60;;;0.60;;
9040;SDS011;4555;49.918;7.012;2022-09-12T11:42:20;0.70;;;0.70;;
9040;SDS011;4555;49.918;7.012;2022-09-12T11:44:54;0.97;;;0.97;;
9040;SDS011;4555;49.918;7.012;2022-09-12T11:47:28;0.90;;;0.90;;
9040;SDS011;4555;49.918;7.012;2022-09-12T11:49:57;1.10;;;1.10;;
9040;SDS011;4555;49.918;7.012;2022-09-12T11:52:28;1.10;;;1.10;;
9040;SDS011;4555;49.918;7.012;2022-09-12T12:02:25;0.60;;;0.60;;
9040;SDS011;4555;49.918;7.012;2022-09-12T12:07:54;0.70;;;0.70;;
9040;SDS011;4555;49.918;7.012;2022-09-12T12:10:26;0.63;;;0.63;;
9040;SDS011;4555;49.918;7.012;2022-09-12T12:12:57;0.63;;;0.63;;
9040;SDS011;4555;49.918;7.012;2022-09-12T12:15:24;0.80;;;0.80;;
9040;SDS011;4555;49.918;7.012;2022-09-12T12:20:51;0.60;;;0.60;;
9040;SDS011;4555;49.918;7.012;2022-09-12T12:25:54;0.50;;;0.50;;
9040;SDS011;4555;49.918;7.012;2022-09-12T12:31:05;0.60;;;0.60;;
9040;SDS011;4555;49.918;7.012;2022-09-12T12:43:43;2.63;;;0.70;;
9040;SDS011;4555;49.918;7.012;2022-09-12T12:46:20;0.80;;;0.80;;
9040;SDS011;4555;49.918;7.012;2022-09-12T12:54:04;0.60;;;0.60;;
9040;SDS011;4555;49.918;7.012;2022-09-12T12:56:59;0.70;;;0.70;;
9040;SDS011;4555;49.918;7.012;2022-09-12T12:59:29;0.50;;;0.50;;
9040;SDS011;4555;49.918;7.012;2022-09-12T13:01:56;0.60;;;0.60;;
9040;SDS011;4555;49.918;7.012;2022-09-12T13:04:24;0.80;;;0.80;;
9040;SDS011;4555;49.918;7.012;2022-09-12T13:06:57;0.57;;;0.57;;
9040;SDS011;4555;49.918;7.012;2022-09-12T13:09:35;0.57;;;0.57;;
9040;SDS011;4555;49.918;7.012;2022-09-12T13:12:09;0.87;;;0.87;;
9040;SDS011;4555;49.918;7.012;2022-09-12T13:17:19;0.37;;;0.37;;
9040;SDS011;4555;49.918;7.012;2022-09-12T13:20:03;0.77;;;0.77;;
9040;SDS011;4555;49.918;7.012;2022-09-12T13:22:39;0.70;;;0.70;;
9040;SDS011;4555;49.918;7.012;2022-09-12T13:25:29;0.40;;;0.40;;
9040;SDS011;4555;49.918;7.012;2022-09-12T13:28:01;0.60;;;0.60;;
9040;SDS011;4555;49.918;7.012;2022-09-12T13:30:29;0.60;;;0.60;;
9040;SDS011;4555;49.918;7.012;2022-09-12T13:33:03;0.70;;;0.70;;
9040;SDS011;4555;49.918;7.012;2022-09-12T13:39:12;0.60;;;0.60;;
9040;SDS011;4555;49.918;7.012;2022-09-12T13:44:31;0.60;;;0.60;;
9040;SDS011;4555;49.918;7.012;2022-09-12T13:47:26;0.67;;;0.67;;
9040;SDS011;4555;49.918;7.012;2022-09-12T13:50:03;0.70;;;0.70;;
9040;SDS011;4555;49.918;7.012;2022-09-12T13:52:32;0.40;;;0.40;;
9040;SDS011;4555;49.918;7.012;2022-09-12T13:54:59;0.80;;;0.70;;
9040;SDS011;4555;49.918;7.012;2022-09-12T13:57:33;0.43;;;0.43;;
9040;SDS011;4555;49.918;7.012;2022-09-12T14:00:11;0.40;;;0.40;;
9040;SDS011;4555;49.918;7.012;2022-09-12T14:02:43;0.60;;;0.60;;
9040;SDS011;4555;49.918;7.012;2022-09-12T14:05:18;0.30;;;0.30;;
9040;SDS011;4555;49.918;7.012;2022-09-12T14:10:36;0.40;;;0.40;;
9040;SDS011;4555;49.918;7.012;2022-09-12T14:13:04;0.30;;;0.30;;
9040;SDS011;4555;49.918;7.012;2022-09-12T14:15:43;0.33;;;0.33;;
9040;SDS011;4555;49.918;7.012;2022-09-12T14:18:18;0.47;;;0.47;;
9040;SDS011;4555;49.918;7.012;2022-09-12T14:20:47;0.30;;;0.30;;
9040;SDS011;4555;49.918;7.012;2022-09-12T14:23:31;0.37;;;0.37;;
9040;SDS011;4555;49.918;7.012;2022-09-12T14:25:59;0.30;;;0.30;;
9040;SDS011;4555;49.918;7.012;2022-09-12T14:28:30;0.30;;;0.30;;
9040;SDS011;4555;49.918;7.012;2022-09-12T14:31:00;0.43;;;0.43;;
9040;SDS011;4555;49.918;7.012;2022-09-12T14:33:50;0.50;;;0.50;;
9040;SDS011;4555;49.918;7.012;2022-09-12T14:36:45;0.50;;;0.50;;
9040;SDS011;4555;49.918;7.012;2022-09-12T14:39:17;0.73;;;0.73;;
9040;SDS011;4555;49.918;7.012;2022-09-12T14:42:00;1.03;;;0.80;;
9040;SDS011;4555;49.918;7.012;2022-09-12T14:44:31;0.33;;;0.33;;
9040;SDS011;4555;49.918;7.012;2022-09-12T14:47:00;0.30;;;0.30;;
9040;SDS011;4555;49.918;7.012;2022-09-12T14:49:43;0.40;;;0.40;;
9040;SDS011;4555;49.918;7.012;2022-09-12T14:52:42;0.47;;;0.47;;
9040;SDS011;4555;49.918;7.012;2022-09-12T14:55:03;0.40;;;0.40;;
9040;SDS011;4555;49.918;7.012;2022-09-12T14:57:46;0.60;;;0.60;;
9040;SDS011;4555;49.918;7.012;2022-09-12T15:00:15;0.70;;;0.70;;
9040;SDS011;4555;49.918;7.012;2022-09-12T15:02:46;0.40;;;0.40;;
9040;SDS011;4555;49.918;7.012;2022-09-12T15:05:24;0.40;;;0.40;;
9040;SDS011;4555;49.918;7.012;2022-09-12T15:10:35;0.23;;;0.23;;
9040;SDS011;4555;49.918;7.012;2022-09-12T15:13:03;2.53;;;0.27;;
9040;SDS011;4555;49.918;7.012;2022-09-12T15:15:33;0.40;;;0.40;;
9040;SDS011;4555;49.918;7.012;2022-09-12T15:17:59;1.97;;;0.80;;
9040;SDS011;4555;49.918;7.012;2022-09-12T15:20:25;0.73;;;0.73;;
9040;SDS011;4555;49.918;7.012;2022-09-12T15:22:52;0.43;;;0.43;;
9040;SDS011;4555;49.918;7.012;2022-09-12T15:25:18;0.63;;;0.63;;
9040;SDS011;4555;49.918;7.012;2022-09-12T15:27:44;0.23;;;0.23;;
9040;SDS011;4555;49.918;7.012;2022-09-12T15:30:11;0.40;;;0.40;;
9040;SDS011;4555;49.918;7.012;2022-09-12T15:32:38;0.20;;;0.20;;
9040;SDS011;4555;49.918;7.012;2022-09-12T15:35:15;0.30;;;0.30;;
9040;SDS011;4555;49.918;7.012;2022-09-12T15:37:42;0.57;;;0.57;;
9040;SDS011;4555;49.918;7.012;2022-09-12T15:40:08;0.53;;;0.53;;
9040;SDS011;4555;49.918;7.012;2022-09-12T15:42:36;0.40;;;0.40;;
9040;SDS011;4555;49.918;7.012;2022-09-12T15:45:01;0.20;;;0.20;;
9040;SDS011;4555;49.918;7.012;2022-09-12T15:47:35;0.40;;;0.40;;
9040;SDS011;4555;49.918;7.012;2022-09-12T15:50:01;0.47;;;0.47;;
9040;SDS011;4555;49.918;7.012;2022-09-12T15:52:26;0.30;;;0.30;;
9040;SDS011;4555;49.918;7.012;2022-09-12T15:54:52;0.20;;;0.20;;
9040;SDS011;4555;49.918;7.012;2022-09-12T15:57:18;0.30;;;0.30;;
9040;SDS011;4555;49.918;7.012;2022-09-12T15:59:44;0.30;;;0.30;;
9040;SDS011;4555;49.918;7.012;2022-09-12T16:02:10;0.83;;;0.50;;
9040;SDS011;4555;49.918;7.012;2022-09-12T16:04:36;2.23;;;0.47;;
9040;SDS011;4555;49.918;7.012;2022-09-12T16:07:01;0.40;;;0.40;;
9040;SDS011;4555;49.918;7.012;2022-09-12T16:09:27;2.00;;;0.50;;
9040;SDS011;4555;49.918;7.012;2022-09-12T16:11:53;0.50;;;0.50;;
9040;SDS011;4555;49.918;7.012;2022-09-12T16:14:19;0.27;;;0.27;;
9040;SDS011;4555;49.918;7.012;2022-09-12T16:16:50;0.40;;;0.40;;
9040;SDS011;4555;49.918;7.012;2022-09-12T16:19:20;0.23;;;0.23;;
9040;SDS011;4555;49.918;7.012;2022-09-12T16:21:46;0.57;;;0.50;;
9040;SDS011;4555;49.918;7.012;2022-09-12T16:24:12;0.20;;;0.20;;
9040;SDS011;4555;49.918;7.012;2022-09-12T16:26:37;0.30;;;0.30;;
9040;SDS011;4555;49.918;7.012;2022-09-12T16:29:03;0.47;;;0.47;;
9040;SDS011;4555;49.918;7.012;2022-09-12T16:31:28;0.30;;;0.30;;
9040;SDS011;4555;49.918;7.012;2022-09-12T16:33:54;0.40;;;0.40;;
9040;SDS011;4555;49.918;7.012;2022-09-12T16:36:21;0.50;;;0.50;;
9040;SDS011;4555;49.918;7.012;2022-09-12T16:38:48;0.60;;;0.60;;
9040;SDS011;4555;49.918;7.012;2022-09-12T16:41:16;0.40;;;0.40;;
9040;SDS011;4555;49.918;7.012;2022-09-12T16:43:43;0.23;;;0.23;;
9040;SDS011;4555;49.918;7.012;2022-09-12T16:46:10;0.40;;;0.40;;
9040;SDS011;4555;49.918;7.012;2022-09-12T16:48:41;0.50;;;0.50;;
9040;SDS011;4555;49.918;7.012;2022-09-12T16:51:09;0.40;;;0.40;;
9040;SDS011;4555;49.918;7.012;2022-09-12T16:53:36;0.20;;;0.20;;
9040;SDS011;4555;49.918;7.012;2022-09-12T16:56:03;0.37;;;0.37;;
9040;SDS011;4555;49.918;7.012;2022-09-12T16:58:34;0.33;;;0.33;;
9040;SDS011;4555;49.918;7.012;2022-09-12T17:01:02;0.27;;;0.27;;
9040;SDS011;4555;49.918;7.012;2022-09-12T17:03:30;0.30;;;0.30;;
9040;SDS011;4555;49.918;7.012;2022-09-12T17:05:59;0.50;;;0.50;;
9040;SDS011;4555;49.918;7.012;2022-09-12T17:08:29;0.27;;;0.27;;
9040;SDS011;4555;49.918;7.012;2022-09-12T17:11:00;0.30;;;0.30;;
9040;SDS011;4555;49.918;7.012;2022-09-12T17:13:28;0.50;;;0.27;;
9040;SDS011;4555;49.918;7.012;2022-09-12T17:15:54;0.30;;;0.30;;
9040;SDS011;4555;49.918;7.012;2022-09-12T17:18:20;0.40;;;0.40;;
9040;SDS011;4555;49.918;7.012;2022-09-12T17:20:47;0.60;;;0.60;;
9040;SDS011;4555;49.918;7.012;2022-09-12T17:23:13;0.30;;;0.30;;
9040;SDS011;4555;49.918;7.012;2022-09-12T17:25:39;0.33;;;0.30;;
9040;SDS011;4555;49.918;7.012;2022-09-12T17:28:05;0.50;;;0.50;;
9040;SDS011;4555;49.918;7.012;2022-09-12T17:30:35;0.33;;;0.33;;
9040;SDS011;4555;49.918;7.012;2022-09-12T17:33:00;0.40;;;0.40;;
9040;SDS011;4555;49.918;7.012;2022-09-12T17:35:26;0.60;;;0.60;;
9040;SDS011;4555;49.918;7.012;2022-09-12T17:37:52;0.30;;;0.30;;
9040;SDS011;4555;49.918;7.012;2022-09-12T17:40:18;0.60;;;0.60;;
9040;SDS011;4555;49.918;7.012;2022-09-12T17:42:45;0.47;;;0.47;;
9040;SDS011;4555;49.918;7.012;2022-09-12T17:45:11;0.40;;;0.40;;
9040;SDS011;4555;49.918;7.012;2022-09-12T17:47:39;0.40;;;0.40;;
9040;SDS011;4555;49.918;7.012;2022-09-12T17:50:06;0.47;;;0.47;;
9040;SDS011;4555;49.918;7.012;2022-09-12T17:52:32;0.30;;;0.30;;
9040;SDS011;4555;49.918;7.012;2022-09-12T17:54:57;0.33;;;0.33;;
9040;SDS011;4555;49.918;7.012;2022-09-12T17:57:23;0.23;;;0.23;;
9040;SDS011;4555;49.918;7.012;2022-09-12T17:59:49;0.50;;;0.50;;
9040;SDS011;4555;49.918;7.012;2022-09-12T18:02:15;0.60;;;0.60;;
9040;SDS011;4555;49.918;7.012;2022-09-12T18:04:42;0.30;;;0.30;;
9040;SDS011;4555;49.918;7.012;2022-09-12T18:07:13;0.37;;;0.37;;
9040;SDS011;4555;49.918;7.012;2022-09-12T18:09:42;0.40;;;0.40;;
9040;SDS011;4555;49.918;7.012;2022-09-12T18:12:08;0.63;;;0.63;;
9040;SDS011;4555;49.918;7.012;2022-09-12T18:14:35;0.50;;;0.50;;
9040;SDS011;4555;49.918;7.012;2022-09-12T18:17:01;0.40;;;0.40;;
9040;SDS011;4555;49.918;7.012;2022-09-12T18:19:28;0.50;;;0.50;;
9040;SDS011;4555;49.918;7.012;2022-09-12T18:21:55;0.70;;;0.70;;